sensor_id;sensor_type;location;lat;lon;timestamp;P1;durP1;ratioP1;P2;durP2;ratioP2
11348;SDS011;5729;43.570;27.826;2022-09-03T00:02:35;0.30;;;0.30;;
11348;SDS011;5729;43.570;27.826;2022-09-03T00:05:07;0.30;;;0.30;;
11348;SDS011;5729;43.570;27.826;2022-09-03T00:08:14;0.30;;;0.30;;
11348;SDS011;5729;43.570;27.826;2022-09-03T00:10:58;0.30;;;0.30;;
11348;SDS011;5729;43.570;27.826;2022-09-03T00:13:38;0.55;;;0.55;;
11348;SDS011;5729;43.570;27.826;2022-09-03T00:16:11;0.20;;;0.20;;
11348;SDS011;5729;43.570;27.826;2022-09-03T00:18:45;0.30;;;0.30;;
11348;SDS011;5729;43.570;27.826;2022-09-03T00:21:16;0.20;;;0.20;;
11348;SDS011;5729;43.570;27.826;2022-09-03T00:23:48;0.25;;;0.25;;
11348;SDS011;5729;43.570;27.826;2022-09-03T00:26:17;0.20;;;0.20;;
11348;SDS011;5729;43.570;27.826;2022-09-03T00:29:00;0.25;;;0.25;;
11348;SDS011;5729;43.570;27.826;2022-09-03T00:36:43;0.40;;;0.40;;
11348;SDS011;5729;43.570;27.826;2022-09-03T00:39:15;0.30;;;0.30;;
11348;SDS011;5729;43.570;27.826;2022-09-03T00:47:23;0.30;;;0.30;;
11348;SDS011;5729;43.570;27.826;2022-09-03T00:52:38;0.30;;;0.30;;
11348;SDS011;5729;43.570;27.826;2022-09-03T01:00:47;0.20;;;0.20;;
11348;SDS011;5729;43.570;27.826;2022-09-03T01:11:42;0.20;;;0.20;;
11348;SDS011;5729;43.570;27.826;2022-09-03T01:30:54;0.30;;;0.30;;
11348;SDS011;5729;43.570;27.826;2022-09-03T01:33:34;0.30;;;0.30;;
11348;SDS011;5729;43.570;27.826;2022-09-03T01:36:16;0.30;;;0.30;;
11348;SDS011;5729;43.570;27.826;2022-09-03T01:38:54;0.20;;;0.20;;
11348;SDS011;5729;43.570;27.826;2022-09-03T01:59:08;0.22;;;0.22;;
11348;SDS011;5729;43.570;27.826;2022-09-03T02:02:28;0.20;;;0.20;;
11348;SDS011;5729;43.570;27.826;2022-09-03T02:04:53;0.30;;;0.30;;
11348;SDS011;5729;43.570;27.826;2022-09-03T02:07:20;0.30;;;0.30;;
11348;SDS011;5729;43.570;27.826;2022-09-03T02:09:48;0.30;;;0.30;;
11348;SDS011;5729;43.570;27.826;2022-09-03T02:12:14;0.30;;;0.30;;
11348;SDS011;5729;43.570;27.826;2022-09-03T02:14:42;0.30;;;0.30;;
11348;SDS011;5729;43.570;27.826;2022-09-03T02:17:08;0.30;;;0.30;;
11348;SDS011;5729;43.570;27.826;2022-09-03T02:19:35;0.30;;;0.30;;
11348;SDS011;5729;43.570;27.826;2022-09-03T02:22:02;2.15;;;2.05;;
11348;SDS011;5729;43.570;27.826;2022-09-03T02:24:28;0.30;;;0.30;;
11348;SDS011;5729;43.570;27.826;2022-09-03T02:26:54;0.30;;;0.30;;
11348;SDS011;5729;43.570;27.826;2022-09-03T02:29:20;0.28;;;0.28;;
11348;SDS011;5729;43.570;27.826;2022-09-03T02:31:46;0.30;;;0.30;;
11348;SDS011;5729;43.570;27.826;2022-09-03T02:34:12;0.30;;;0.30;;
11348;SDS011;5729;43.570;27.826;2022-09-03T02:36:42;0.30;;;0.30;;
11348;SDS011;5729;43.570;27.826;2022-09-03T02:39:10;0.35;;;0.35;;
11348;SDS011;5729;43.570;27.826;2022-09-03T02:41:36;0.30;;;0.30;;
11348;SDS011;5729;43.570;27.826;2022-09-03T02:46:40;0.35;;;0.35;;
11348;SDS011;5729;43.570;27.826;2022-09-03T02:49:09;0.30;;;0.30;;
11348;SDS011;5729;43.570;27.826;2022-09-03T02:51:35;0.40;;;0.40;;
11348;SDS011;5729;43.570;27.826;2022-09-03T02:54:03;0.40;;;0.40;;
11348;SDS011;5729;43.570;27.826;2022-09-03T02:56:29;0.30;;;0.30;;
11348;SDS011;5729;43.570;27.826;2022-09-03T02:58:54;0.30;;;0.30;;
11348;SDS011;5729;43.570;27.826;2022-09-03T03:01:20;0.30;;;0.30;;
11348;SDS011;5729;43.570;27.826;2022-09-03T03:03:45;0.40;;;0.40;;
11348;SDS011;5729;43.570;27.826;2022-09-03T03:06:11;0.30;;;0.30;;
11348;SDS011;5729;43.570;27.826;2022-09-03T03:08:38;0.30;;;0.30;;
11348;SDS011;5729;43.570;27.826;2022-09-03T03:11:03;0.30;;;0.30;;
11348;SDS011;5729;43.570;27.826;2022-09-03T03:13:29;0.30;;;0.30;;
11348;SDS011;5729;43.570;27.826;2022-09-03T03:15:59;0.30;;;0.30;;
11348;SDS011;5729;43.570;27.826;2022-09-03T03:18:26;0.30;;;0.30;;
11348;SDS011;5729;43.570;27.826;2022-09-03T03:20:52;0.30;;;0.30;;
11348;SDS011;5729;43.570;27.826;2022-09-03T03:23:18;0.30;;;0.30;;
11348;SDS011;5729;43.570;27.826;2022-09-03T03:25:44;0.30;;;0.30;;
11348;SDS011;5729;43.570;27.826;2022-09-03T03:28:10;0.30;;;0.30;;
11348;SDS011;5729;43.570;27.826;2022-09-03T03:30:37;0.98;;;0.98;;
11348;SDS011;5729;43.570;27.826;2022-09-03T03:33:07;0.40;;;0.40;;
11348;SDS011;5729;43.570;27.826;2022-09-03T03:35:34;0.30;;;0.30;;
11348;SDS011;5729;43.570;27.826;2022-09-03T03:38:00;0.30;;;0.30;;
11348;SDS011;5729;43.570;27.826;2022-09-03T03:40:26;0.30;;;0.30;;
11348;SDS011;5729;43.570;27.826;2022-09-03T03:42:51;0.20;;;0.20;;
11348;SDS011;5729;43.570;27.826;2022-09-03T03:45:17;0.40;;;0.40;;
11348;SDS011;5729;43.570;27.826;2022-09-03T03:47:44;0.30;;;0.30;;
11348;SDS011;5729;43.570;27.826;2022-09-03T03:50:09;0.30;;;0.30;;
11348;SDS011;5729;43.570;27.826;2022-09-03T03:52:34;0.82;;;0.82;;
11348;SDS011;5729;43.570;27.826;2022-09-03T03:55:00;0.30;;;0.30;;
11348;SDS011;5729;43.570;27.826;2022-09-03T03:57:28;0.30;;;0.30;;
11348;SDS011;5729;43.570;27.826;2022-09-03T03:59:59;0.30;;;0.30;;
11348;SDS011;5729;43.570;27.826;2022-09-03T04:02:24;0.32;;;0.32;;
11348;SDS011;5729;43.570;27.826;2022-09-03T04:04:50;0.30;;;0.30;;
11348;SDS011;5729;43.570;27.826;2022-09-03T04:07:15;0.32;;;0.32;;
11348;SDS011;5729;43.570;27.826;2022-09-03T04:09:41;0.30;;;0.30;;
11348;SDS011;5729;43.570;27.826;2022-09-03T04:12:06;0.30;;;0.30;;
11348;SDS011;5729;43.570;27.826;2022-09-03T04:14:33;0.38;;;0.38;;
11348;SDS011;5729;43.570;27.826;2022-09-03T04:16:59;0.30;;;0.30;;
11348;SDS011;5729;43.570;27.826;2022-09-03T04:19:25;0.30;;;0.30;;
11348;SDS011;5729;43.570;27.826;2022-09-03T04:21:53;0.30;;;0.30;;
11348;SDS011;5729;43.570;27.826;2022-09-03T04:24:19;1.30;;;1.30;;
11348;SDS011;5729;43.570;27.826;2022-09-03T04:26:44;0.30;;;0.30;;
11348;SDS011;5729;43.570;27.826;2022-09-03T04:29:11;0.20;;;0.20;;
11348;SDS011;5729;43.570;27.826;2022-09-03T04:31:37;0.20;;;0.20;;
11348;SDS011;5729;43.570;27.826;2022-09-03T04:34:03;0.30;;;0.30;;
11348;SDS011;5729;43.570;27.826;2022-09-03T04:36:30;0.30;;;0.30;;
11348;SDS011;5729;43.570;27.826;2022-09-03T04:38:57;0.30;;;0.30;;
11348;SDS011;5729;43.570;27.826;2022-09-03T04:41:24;4.18;;;2.50;;
11348;SDS011;5729;43.570;27.826;2022-09-03T04:43:51;0.30;;;0.30;;
11348;SDS011;5729;43.570;27.826;2022-09-03T04:46:18;0.30;;;0.30;;
11348;SDS011;5729;43.570;27.826;2022-09-03T04:48:48;0.30;;;0.30;;
11348;SDS011;5729;43.570;27.826;2022-09-03T04:51:16;0.30;;;0.30;;
11348;SDS011;5729;43.570;27.826;2022-09-03T04:53:46;0.30;;;0.30;;
11348;SDS011;5729;43.570;27.826;2022-09-03T04:56:18;0.93;;;0.93;;
11348;SDS011;5729;43.570;27.826;2022-09-03T04:58:46;0.30;;;0.30;;
11348;SDS011;5729;43.570;27.826;2022-09-03T05:01:16;0.30;;;0.30;;
11348;SDS011;5729;43.570;27.826;2022-09-03T05:03:44;0.85;;;0.85;;
11348;SDS011;5729;43.570;27.826;2022-09-03T05:06:09;0.35;;;0.35;;
11348;SDS011;5729;43.570;27.826;2022-09-03T05:08:36;0.30;;;0.30;;
11348;SDS011;5729;43.570;27.826;2022-09-03T05:11:05;0.30;;;0.30;;
11348;SDS011;5729;43.570;27.826;2022-09-03T05:13:32;0.40;;;0.40;;
11348;SDS011;5729;43.570;27.826;2022-09-03T05:16:02;0.50;;;0.50;;
11348;SDS011;5729;43.570;27.826;2022-09-03T05:18:29;0.22;;;0.22;;
11348;SDS011;5729;43.570;27.826;2022-09-03T05:21:13;0.30;;;0.30;;
11348;SDS011;5729;43.570;27.826;2022-09-03T05:23:41;0.30;;;0.30;;
11348;SDS011;5729;43.570;27.826;2022-09-03T05:26:09;0.30;;;0.30;;
11348;SDS011;5729;43.570;27.826;2022-09-03T05:28:40;0.30;;;0.30;;
11348;SDS011;5729;43.570;27.826;2022-09-03T05:31:07;0.22;;;0.22;;
11348;SDS011;5729;43.570;27.826;2022-09-03T05:33:35;0.30;;;0.30;;
11348;SDS011;5729;43.570;27.826;2022-09-03T05:36:08;0.30;;;0.30;;
11348;SDS011;5729;43.570;27.826;2022-09-03T05:38:35;0.30;;;0.30;;
11348;SDS011;5729;43.570;27.826;2022-09-03T05:41:01;0.30;;;0.30;;
11348;SDS011;5729;43.570;27.826;2022-09-03T05:43:28;0.30;;;0.30;;
11348;SDS011;5729;43.570;27.826;2022-09-03T05:45:58;0.30;;;0.30;;
11348;SDS011;5729;43.570;27.826;2022-09-03T05:48:25;0.30;;;0.30;;
11348;SDS011;5729;43.570;27.826;2022-09-03T05:53:25;0.30;;;0.30;;
11348;SDS011;5729;43.570;27.826;2022-09-03T05:55:55;0.30;;;0.30;;
11348;SDS011;5729;43.570;27.826;2022-09-03T05:58:31;0.30;;;0.30;;
11348;SDS011;5729;43.570;27.826;2022-09-03T06:00:58;0.40;;;0.40;;
11348;SDS011;5729;43.570;27.826;2022-09-03T06:03:25;0.30;;;0.30;;
11348;SDS011;5729;43.570;27.826;2022-09-03T06:05:51;0.30;;;0.30;;
11348;SDS011;5729;43.570;27.826;2022-09-03T06:08:18;0.30;;;0.30;;
11348;SDS011;5729;43.570;27.826;2022-09-03T06:10:47;0.30;;;0.30;;
11348;SDS011;5729;43.570;27.826;2022-09-03T06:13:12;0.30;;;0.30;;
11348;SDS011;5729;43.570;27.826;2022-09-03T06:15:38;0.30;;;0.30;;
11348;SDS011;5729;43.570;27.826;2022-09-03T06:18:04;0.30;;;0.30;;
11348;SDS011;5729;43.570;27.826;2022-09-03T06:20:30;0.30;;;0.30;;
11348;SDS011;5729;43.570;27.826;2022-09-03T06:22:56;0.35;;;0.35;;
11348;SDS011;5729;43.570;27.826;2022-09-03T06:25:22;0.40;;;0.40;;
11348;SDS011;5729;43.570;27.826;2022-09-03T06:27:48;0.40;;;0.40;;
11348;SDS011;5729;43.570;27.826;2022-09-03T06:30:14;0.30;;;0.30;;
11348;SDS011;5729;43.570;27.826;2022-09-03T06:32:44;0.30;;;0.30;;
11348;SDS011;5729;43.570;27.826;2022-09-03T06:35:10;0.30;;;0.30;;
11348;SDS011;5729;43.570;27.826;2022-09-03T06:37:40;0.40;;;0.40;;
11348;SDS011;5729;43.570;27.826;2022-09-03T06:40:06;0.40;;;0.40;;
11348;SDS011;5729;43.570;27.826;2022-09-03T06:42:54;0.30;;;0.30;;
11348;SDS011;5729;43.570;27.826;2022-09-03T06:45:23;1.25;;;1.25;;
11348;SDS011;5729;43.570;27.826;2022-09-03T06:47:48;0.30;;;0.30;;
11348;SDS011;5729;43.570;27.826;2022-09-03T06:50:14;0.30;;;0.30;;
11348;SDS011;5729;43.570;27.826;2022-09-03T06:52:39;0.32;;;0.32;;
11348;SDS011;5729;43.570;27.826;2022-09-03T06:55:05;0.30;;;0.30;;
11348;SDS011;5729;43.570;27.826;2022-09-03T06:57:30;0.55;;;0.55;;
11348;SDS011;5729;43.570;27.826;2022-09-03T06:59:56;0.47;;;0.47;;
11348;SDS011;5729;43.570;27.826;2022-09-03T07:02:22;0.28;;;0.28;;
11348;SDS011;5729;43.570;27.826;2022-09-03T07:04:47;0.30;;;0.30;;
11348;SDS011;5729;43.570;27.826;2022-09-03T07:07:13;0.30;;;0.30;;
11348;SDS011;5729;43.570;27.826;2022-09-03T07:09:40;0.30;;;0.30;;
11348;SDS011;5729;43.570;27.826;2022-09-03T07:12:06;0.30;;;0.30;;
11348;SDS011;5729;43.570;27.826;2022-09-03T07:14:31;0.30;;;0.30;;
11348;SDS011;5729;43.570;27.826;2022-09-03T07:16:57;0.30;;;0.30;;
11348;SDS011;5729;43.570;27.826;2022-09-03T07:19:22;0.40;;;0.40;;
11348;SDS011;5729;43.570;27.826;2022-09-03T07:21:48;0.77;;;0.77;;
11348;SDS011;5729;43.570;27.826;2022-09-03T07:24:13;0.47;;;0.47;;
11348;SDS011;5729;43.570;27.826;2022-09-03T07:26:40;0.30;;;0.30;;
11348;SDS011;5729;43.570;27.826;2022-09-03T07:29:11;1.08;;;1.08;;
11348;SDS011;5729;43.570;27.826;2022-09-03T07:31:38;0.30;;;0.30;;
11348;SDS011;5729;43.570;27.826;2022-09-03T07:34:06;0.30;;;0.30;;
11348;SDS011;5729;43.570;27.826;2022-09-03T07:36:41;0.40;;;0.40;;
11348;SDS011;5729;43.570;27.826;2022-09-03T07:39:10;0.32;;;0.32;;
11348;SDS011;5729;43.570;27.826;2022-09-03T07:41:36;0.40;;;0.40;;
11348;SDS011;5729;43.570;27.826;2022-09-03T07:44:03;0.60;;;0.60;;
11348;SDS011;5729;43.570;27.826;2022-09-03T07:46:32;0.30;;;0.30;;
11348;SDS011;5729;43.570;27.826;2022-09-03T07:49:00;3.72;;;2.05;;
11348;SDS011;5729;43.570;27.826;2022-09-03T07:51:30;0.30;;;0.30;;
11348;SDS011;5729;43.570;27.826;2022-09-03T07:53:58;0.55;;;0.55;;
11348;SDS011;5729;43.570;27.826;2022-09-03T07:56:26;0.30;;;0.30;;
11348;SDS011;5729;43.570;27.826;2022-09-03T07:58:55;33.05;;;10.63;;
11348;SDS011;5729;43.570;27.826;2022-09-03T08:01:21;0.38;;;0.38;;
11348;SDS011;5729;43.570;27.826;2022-09-03T08:03:48;0.32;;;0.32;;
11348;SDS011;5729;43.570;27.826;2022-09-03T08:06:16;0.30;;;0.30;;
11348;SDS011;5729;43.570;27.826;2022-09-03T08:08:43;0.30;;;0.30;;
11348;SDS011;5729;43.570;27.826;2022-09-03T08:11:15;0.30;;;0.30;;
11348;SDS011;5729;43.570;27.826;2022-09-03T08:16:34;0.30;;;0.30;;
11348;SDS011;5729;43.570;27.826;2022-09-03T08:19:05;1.05;;;1.05;;
11348;SDS011;5729;43.570;27.826;2022-09-03T08:21:31;0.40;;;0.40;;
11348;SDS011;5729;43.570;27.826;2022-09-03T08:23:57;0.30;;;0.30;;
11348;SDS011;5729;43.570;27.826;2022-09-03T08:26:28;0.30;;;0.30;;
11348;SDS011;5729;43.570;27.826;2022-09-03T08:28:56;0.30;;;0.30;;
11348;SDS011;5729;43.570;27.826;2022-09-03T08:31:22;0.40;;;0.40;;
11348;SDS011;5729;43.570;27.826;2022-09-03T08:33:52;0.50;;;0.50;;
11348;SDS011;5729;43.570;27.826;2022-09-03T08:36:23;0.30;;;0.30;;
11348;SDS011;5729;43.570;27.826;2022-09-03T08:38:50;0.30;;;0.30;;
11348;SDS011;5729;43.570;27.826;2022-09-03T08:44:59;0.30;;;0.30;;
11348;SDS011;5729;43.570;27.826;2022-09-03T08:47:21;0.30;;;0.30;;
11348;SDS011;5729;43.570;27.826;2022-09-03T08:50:11;0.30;;;0.30;;
11348;SDS011;5729;43.570;27.826;2022-09-03T08:52:54;0.30;;;0.30;;
11348;SDS011;5729;43.570;27.826;2022-09-03T09:08:47;0.50;;;0.50;;
11348;SDS011;5729;43.570;27.826;2022-09-03T09:17:19;0.30;;;0.30;;
11348;SDS011;5729;43.570;27.826;2022-09-03T09:19:53;0.30;;;0.30;;
11348;SDS011;5729;43.570;27.826;2022-09-03T09:22:29;0.40;;;0.40;;
11348;SDS011;5729;43.570;27.826;2022-09-03T09:25:03;0.30;;;0.30;;
11348;SDS011;5729;43.570;27.826;2022-09-03T09:27:33;0.32;;;0.32;;
11348;SDS011;5729;43.570;27.826;2022-09-03T09:30:00;6.47;;;0.98;;
11348;SDS011;5729;43.570;27.826;2022-09-03T09:32:28;0.47;;;0.47;;
11348;SDS011;5729;43.570;27.826;2022-09-03T09:34:55;0.38;;;0.38;;
11348;SDS011;5729;43.570;27.826;2022-09-03T09:37:20;0.30;;;0.30;;
11348;SDS011;5729;43.570;27.826;2022-09-03T09:39:56;0.30;;;0.30;;
11348;SDS011;5729;43.570;27.826;2022-09-03T09:42:23;0.40;;;0.40;;
11348;SDS011;5729;43.570;27.826;2022-09-03T09:44:48;0.40;;;0.40;;
11348;SDS011;5729;43.570;27.826;2022-09-03T09:47:29;0.40;;;0.40;;
11348;SDS011;5729;43.570;27.826;2022-09-03T09:50:02;0.35;;;0.35;;
11348;SDS011;5729;43.570;27.826;2022-09-03T09:52:39;0.30;;;0.30;;
11348;SDS011;5729;43.570;27.826;2022-09-03T09:55:08;2.13;;;1.95;;
11348;SDS011;5729;43.570;27.826;2022-09-03T09:57:38;0.40;;;0.40;;
11348;SDS011;5729;43.570;27.826;2022-09-03T10:00:08;0.30;;;0.30;;
11348;SDS011;5729;43.570;27.826;2022-09-03T10:02:37;0.20;;;0.20;;
11348;SDS011;5729;43.570;27.826;2022-09-03T10:05:14;0.30;;;0.30;;
11348;SDS011;5729;43.570;27.826;2022-09-03T10:10:49;0.35;;;0.35;;
11348;SDS011;5729;43.570;27.826;2022-09-03T10:13:19;0.30;;;0.30;;
11348;SDS011;5729;43.570;27.826;2022-09-03T10:15:58;0.40;;;0.40;;
11348;SDS011;5729;43.570;27.826;2022-09-03T10:18:41;0.30;;;0.30;;
11348;SDS011;5729;43.570;27.826;2022-09-03T10:21:15;0.30;;;0.30;;
11348;SDS011;5729;43.570;27.826;2022-09-03T10:26:39;0.47;;;0.47;;
11348;SDS011;5729;43.570;27.826;2022-09-03T10:29:10;0.30;;;0.30;;
11348;SDS011;5729;43.570;27.826;2022-09-03T10:31:50;0.30;;;0.30;;
11348;SDS011;5729;43.570;27.826;2022-09-03T10:42:47;0.30;;;0.30;;
11348;SDS011;5729;43.570;27.826;2022-09-03T10:45:22;0.30;;;0.30;;
11348;SDS011;5729;43.570;27.826;2022-09-03T10:48:13;0.30;;;0.30;;
11348;SDS011;5729;43.570;27.826;2022-09-03T10:56:29;0.20;;;0.20;;
11348;SDS011;5729;43.570;27.826;2022-09-03T10:59:16;0.30;;;0.30;;
11348;SDS011;5729;43.570;27.826;2022-09-03T11:08:00;0.30;;;0.30;;
11348;SDS011;5729;43.570;27.826;2022-09-03T11:10:36;0.30;;;0.30;;
11348;SDS011;5729;43.570;27.826;2022-09-03T11:18:53;0.28;;;0.28;;
11348;SDS011;5729;43.570;27.826;2022-09-03T11:21:25;0.40;;;0.40;;
11348;SDS011;5729;43.570;27.826;2022-09-03T11:24:00;0.30;;;0.30;;
11348;SDS011;5729;43.570;27.826;2022-09-03T11:26:31;0.20;;;0.20;;
11348;SDS011;5729;43.570;27.826;2022-09-03T11:34:28;0.30;;;0.30;;
11348;SDS011;5729;43.570;27.826;2022-09-03T11:39:51;0.30;;;0.30;;
11348;SDS011;5729;43.570;27.826;2022-09-03T11:42:41;0.30;;;0.30;;
11348;SDS011;5729;43.570;27.826;2022-09-03T11:47:54;0.30;;;0.30;;
11348;SDS011;5729;43.570;27.826;2022-09-03T11:52:49;0.30;;;0.30;;
11348;SDS011;5729;43.570;27.826;2022-09-03T11:55:24;0.40;;;0.40;;
11348;SDS011;5729;43.570;27.826;2022-09-03T11:57:55;0.30;;;0.30;;
11348;SDS011;5729;43.570;27.826;2022-09-03T12:00:21;0.40;;;0.40;;
11348;SDS011;5729;43.570;27.826;2022-09-03T12:02:49;0.30;;;0.30;;
11348;SDS011;5729;43.570;27.826;2022-09-03T12:18:05;0.40;;;0.40;;
11348;SDS011;5729;43.570;27.826;2022-09-03T12:20:36;0.40;;;0.40;;
11348;SDS011;5729;43.570;27.826;2022-09-03T12:23:02;0.32;;;0.32;;
11348;SDS011;5729;43.570;27.826;2022-09-03T12:25:27;0.40;;;0.40;;
11348;SDS011;5729;43.570;27.826;2022-09-03T12:27:53;0.30;;;0.30;;
11348;SDS011;5729;43.570;27.826;2022-09-03T12:30:21;0.20;;;0.20;;
11348;SDS011;5729;43.570;27.826;2022-09-03T12:32:47;0.30;;;0.30;;
11348;SDS011;5729;43.570;27.826;2022-09-03T12:35:19;0.30;;;0.30;;
11348;SDS011;5729;43.570;27.826;2022-09-03T12:37:46;0.30;;;0.30;;
11348;SDS011;5729;43.570;27.826;2022-09-03T12:40:17;0.32;;;0.32;;
11348;SDS011;5729;43.570;27.826;2022-09-03T12:42:45;0.30;;;0.30;;
11348;SDS011;5729;43.570;27.826;2022-09-03T12:45:11;0.40;;;0.40;;
11348;SDS011;5729;43.570;27.826;2022-09-03T12:47:39;0.30;;;0.30;;
11348;SDS011;5729;43.570;27.826;2022-09-03T12:50:10;0.30;;;0.30;;
11348;SDS011;5729;43.570;27.826;2022-09-03T12:52:53;0.30;;;0.30;;
11348;SDS011;5729;43.570;27.826;2022-09-03T12:55:42;0.30;;;0.30;;
11348;SDS011;5729;43.570;27.826;2022-09-03T12:58:15;0.30;;;0.30;;
11348;SDS011;5729;43.570;27.826;2022-09-03T13:03:23;0.30;;;0.30;;
11348;SDS011;5729;43.570;27.826;2022-09-03T13:05:58;0.30;;;0.30;;
11348;SDS011;5729;43.570;27.826;2022-09-03T13:08:37;0.30;;;0.30;;
11348;SDS011;5729;43.570;27.826;2022-09-03T13:11:14;0.30;;;0.30;;
11348;SDS011;5729;43.570;27.826;2022-09-03T13:13:49;0.30;;;0.30;;
11348;SDS011;5729;43.570;27.826;2022-09-03T13:18:50;0.30;;;0.30;;
11348;SDS011;5729;43.570;27.826;2022-09-03T13:26:45;5.72;;;4.45;;
11348;SDS011;5729;43.570;27.826;2022-09-03T13:34:52;6.57;;;5.50;;
11348;SDS011;5729;43.570;27.826;2022-09-03T13:37:24;6.43;;;5.82;;
11348;SDS011;5729;43.570;27.826;2022-09-03T13:39:56;6.43;;;5.53;;
11348;SDS011;5729;43.570;27.826;2022-09-03T13:42:29;9.05;;;6.63;;
11348;SDS011;5729;43.570;27.826;2022-09-03T13:45:10;8.48;;;6.07;;
11348;SDS011;5729;43.570;27.826;2022-09-03T13:47:51;6.03;;;5.43;;
11348;SDS011;5729;43.570;27.826;2022-09-03T13:51:41;5.80;;;5.22;;
11348;SDS011;5729;43.570;27.826;2022-09-03T13:54:02;6.78;;;6.15;;
11348;SDS011;5729;43.570;27.826;2022-09-03T14:01:54;7.70;;;6.90;;
11348;SDS011;5729;43.570;27.826;2022-09-03T14:04:28;10.05;;;7.53;;
11348;SDS011;5729;43.570;27.826;2022-09-03T14:15:14;10.98;;;9.43;;
11348;SDS011;5729;43.570;27.826;2022-09-03T14:21:04;18.40;;;9.32;;
11348;SDS011;5729;43.570;27.826;2022-09-03T14:23:50;13.35;;;9.52;;
11348;SDS011;5729;43.570;27.826;2022-09-03T14:26:26;10.45;;;9.20;;
11348;SDS011;5729;43.570;27.826;2022-09-03T14:28:58;13.05;;;10.10;;
11348;SDS011;5729;43.570;27.826;2022-09-03T14:37:08;11.48;;;10.35;;
11348;SDS011;5729;43.570;27.826;2022-09-03T14:53:46;10.02;;;8.93;;
11348;SDS011;5729;43.570;27.826;2022-09-03T14:56:34;10.35;;;9.25;;
11348;SDS011;5729;43.570;27.826;2022-09-03T15:01:41;11.05;;;10.00;;
11348;SDS011;5729;43.570;27.826;2022-09-03T15:07:30;12.88;;;10.52;;
11348;SDS011;5729;43.570;27.826;2022-09-03T15:10:25;11.50;;;10.30;;
11348;SDS011;5729;43.570;27.826;2022-09-03T15:13:09;12.20;;;10.30;;
11348;SDS011;5729;43.570;27.826;2022-09-03T15:20:50;13.43;;;10.52;;
11348;SDS011;5729;43.570;27.826;2022-09-03T15:37:58;9.30;;;8.30;;
11348;SDS011;5729;43.570;27.826;2022-09-03T15:40:30;10.48;;;8.07;;
11348;SDS011;5729;43.570;27.826;2022-09-03T15:43:18;10.57;;;8.00;;
11348;SDS011;5729;43.570;27.826;2022-09-03T15:48:33;8.85;;;7.95;;
11348;SDS011;5729;43.570;27.826;2022-09-03T15:51:24;10.13;;;8.15;;
11348;SDS011;5729;43.570;27.826;2022-09-03T15:53:57;9.63;;;8.40;;
11348;SDS011;5729;43.570;27.826;2022-09-03T15:59:15;8.70;;;7.88;;
11348;SDS011;5729;43.570;27.826;2022-09-03T16:01:53;9.18;;;8.27;;
11348;SDS011;5729;43.570;27.826;2022-09-03T16:10:19;9.93;;;8.25;;
11348;SDS011;5729;43.570;27.826;2022-09-03T16:15:47;11.43;;;9.27;;
11348;SDS011;5729;43.570;27.826;2022-09-03T16:20:55;11.45;;;9.82;;
11348;SDS011;5729;43.570;27.826;2022-09-03T16:23:31;11.82;;;10.63;;
11348;SDS011;5729;43.570;27.826;2022-09-03T16:26:07;12.50;;;10.27;;
11348;SDS011;5729;43.570;27.826;2022-09-03T16:36:44;10.45;;;9.30;;
11348;SDS011;5729;43.570;27.826;2022-09-03T16:39:18;11.73;;;10.35;;
11348;SDS011;5729;43.570;27.826;2022-09-03T16:45:34;12.75;;;10.82;;
11348;SDS011;5729;43.570;27.826;2022-09-03T17:11:12;10.93;;;8.65;;
11348;SDS011;5729;43.570;27.826;2022-09-03T17:16:27;9.38;;;8.48;;
11348;SDS011;5729;43.570;27.826;2022-09-03T17:19:23;9.10;;;8.20;;
11348;SDS011;5729;43.570;27.826;2022-09-03T17:24:42;9.63;;;7.93;;
11348;SDS011;5729;43.570;27.826;2022-09-03T17:35:54;9.05;;;8.15;;
11348;SDS011;5729;43.570;27.826;2022-09-03T17:40:53;10.70;;;8.63;;
11348;SDS011;5729;43.570;27.826;2022-09-03T17:43:40;9.68;;;8.68;;
11348;SDS011;5729;43.570;27.826;2022-09-03T17:49:06;11.05;;;9.73;;
11348;SDS011;5729;43.570;27.826;2022-09-03T17:51:38;10.98;;;9.88;;
11348;SDS011;5729;43.570;27.826;2022-09-03T17:54:31;13.77;;;9.63;;
11348;SDS011;5729;43.570;27.826;2022-09-03T18:02:23;11.75;;;10.35;;
11348;SDS011;5729;43.570;27.826;2022-09-03T18:12:48;13.18;;;10.20;;
11348;SDS011;5729;43.570;27.826;2022-09-03T18:15:23;13.52;;;11.05;;
11348;SDS011;5729;43.570;27.826;2022-09-03T18:20:27;12.95;;;10.98;;
11348;SDS011;5729;43.570;27.826;2022-09-03T18:23:31;16.70;;;11.65;;
11348;SDS011;5729;43.570;27.826;2022-09-03T18:26:28;12.45;;;11.15;;
11348;SDS011;5729;43.570;27.826;2022-09-03T18:29:35;12.45;;;11.00;;
11348;SDS011;5729;43.570;27.826;2022-09-03T18:32:25;14.60;;;11.57;;
11348;SDS011;5729;43.570;27.826;2022-09-03T18:35:12;12.57;;;11.32;;
11348;SDS011;5729;43.570;27.826;2022-09-03T18:37:57;13.45;;;12.05;;
11348;SDS011;5729;43.570;27.826;2022-09-03T18:56:23;12.15;;;10.27;;
11348;SDS011;5729;43.570;27.826;2022-09-03T19:02:15;14.43;;;11.23;;
11348;SDS011;5729;43.570;27.826;2022-09-03T19:05:19;14.25;;;10.80;;
11348;SDS011;5729;43.570;27.826;2022-09-03T19:08:18;11.95;;;10.30;;
11348;SDS011;5729;43.570;27.826;2022-09-03T19:11:13;15.13;;;10.95;;
11348;SDS011;5729;43.570;27.826;2022-09-03T19:14:02;13.50;;;10.93;;
11348;SDS011;5729;43.570;27.826;2022-09-03T19:20:05;11.90;;;10.68;;
11348;SDS011;5729;43.570;27.826;2022-09-03T19:23:01;12.38;;;11.02;;
11348;SDS011;5729;43.570;27.826;2022-09-03T19:25:45;12.65;;;11.45;;
11348;SDS011;5729;43.570;27.826;2022-09-03T19:28:30;15.27;;;12.75;;
11348;SDS011;5729;43.570;27.826;2022-09-03T19:47:02;12.48;;;10.90;;
11348;SDS011;5729;43.570;27.826;2022-09-03T19:52:56;12.35;;;11.10;;
11348;SDS011;5729;43.570;27.826;2022-09-03T19:55:47;14.43;;;10.32;;
11348;SDS011;5729;43.570;27.826;2022-09-03T19:58:36;10.57;;;9.40;;
11348;SDS011;5729;43.570;27.826;2022-09-03T20:01:24;12.13;;;10.02;;
11348;SDS011;5729;43.570;27.826;2022-09-03T20:04:15;11.32;;;10.00;;
11348;SDS011;5729;43.570;27.826;2022-09-03T20:07:01;11.13;;;9.95;;
11348;SDS011;5729;43.570;27.826;2022-09-03T20:09:47;10.30;;;9.23;;
11348;SDS011;5729;43.570;27.826;2022-09-03T20:12:37;12.98;;;9.40;;
11348;SDS011;5729;43.570;27.826;2022-09-03T20:15:07;11.13;;;9.88;;
11348;SDS011;5729;43.570;27.826;2022-09-03T20:23:33;12.15;;;8.85;;
11348;SDS011;5729;43.570;27.826;2022-09-03T20:31:42;11.35;;;9.70;;
11348;SDS011;5729;43.570;27.826;2022-09-03T20:34:42;10.20;;;9.23;;
11348;SDS011;5729;43.570;27.826;2022-09-03T20:40:27;9.60;;;8.60;;
11348;SDS011;5729;43.570;27.826;2022-09-03T20:48:52;10.30;;;9.10;;
11348;SDS011;5729;43.570;27.826;2022-09-03T20:51:32;12.02;;;9.50;;
11348;SDS011;5729;43.570;27.826;2022-09-03T20:59:36;14.02;;;10.45;;
11348;SDS011;5729;43.570;27.826;2022-09-03T21:07:42;18.20;;;9.73;;
11348;SDS011;5729;43.570;27.826;2022-09-03T21:10:27;11.23;;;9.95;;
11348;SDS011;5729;43.570;27.826;2022-09-03T21:13:19;11.13;;;9.70;;
11348;SDS011;5729;43.570;27.826;2022-09-03T21:16:15;10.43;;;9.43;;
11348;SDS011;5729;43.570;27.826;2022-09-03T21:24:31;11.88;;;9.85;;
11348;SDS011;5729;43.570;27.826;2022-09-03T21:27:06;13.40;;;10.05;;
11348;SDS011;5729;43.570;27.826;2022-09-03T21:29:38;11.75;;;10.10;;
11348;SDS011;5729;43.570;27.826;2022-09-03T21:32:15;10.75;;;9.57;;
11348;SDS011;5729;43.570;27.826;2022-09-03T21:35:02;12.07;;;9.23;;
11348;SDS011;5729;43.570;27.826;2022-09-03T21:37:49;10.82;;;9.73;;
11348;SDS011;5729;43.570;27.826;2022-09-03T21:40:19;10.77;;;9.68;;
11348;SDS011;5729;43.570;27.826;2022-09-03T21:43:01;13.93;;;9.73;;
11348;SDS011;5729;43.570;27.826;2022-09-03T21:45:39;10.30;;;9.20;;
11348;SDS011;5729;43.570;27.826;2022-09-03T21:48:25;12.13;;;10.00;;
11348;SDS011;5729;43.570;27.826;2022-09-03T21:51:00;11.75;;;9.98;;
11348;SDS011;5729;43.570;27.826;2022-09-03T22:01:02;15.93;;;11.02;;